createdAt,value
2022-08-16T00:00:38.374Z,100574.97
2022-08-16T00:05:48.591Z,100571.53
2022-08-16T00:10:53.412Z,100572.56
2022-08-16T00:15:57.869Z,100579.78
2022-08-16T00:21:01.081Z,100579.03
2022-08-16T00:26:35.345Z,100584.38
2022-08-16T00:31:59.352Z,100593.31
2022-08-16T00:36:56.278Z,100592.38
2022-08-16T00:42:01.661Z,100595.97
2022-08-16T00:47:11.113Z,100600.47
2022-08-16T00:52:29.777Z,100589.81
2022-08-16T00:57:58.302Z,100598.75
2022-08-16T01:03:00.915Z,100603.25
2022-08-16T01:08:35.026Z,100600.63
2022-08-16T01:13:33.954Z,100597.09
2022-08-16T01:18:45.273Z,100596.25
2022-08-16T01:23:58.214Z,100596.31
2022-08-16T01:29:09.911Z,100607.09
2022-08-16T01:34:25.333Z,100601.81
2022-08-16T01:39:35.458Z,100604.50
2022-08-16T01:44:42.402Z,100608.06
2022-08-16T01:50:42.483Z,100600.09
2022-08-16T01:55:12.177Z,100607.31
2022-08-16T02:00:19.949Z,100594.91
2022-08-16T02:05:23.817Z,100593.19
2022-08-16T02:10:28.850Z,100596.81
2022-08-16T02:15:38.738Z,100595.97
2022-08-16T02:20:53.514Z,100596.03
2022-08-16T02:25:59.551Z,100589.81
2022-08-16T02:31:07.547Z,100585.41
2022-08-16T02:36:48.181Z,100579.25
2022-08-16T02:41:43.026Z,100581.06
2022-08-16T02:46:49.945Z,100576.63
2022-08-16T02:51:54.711Z,100577.56
2022-08-16T02:56:59.440Z,100567.84
2022-08-16T03:02:08.837Z,100573.22
2022-08-16T03:07:14.521Z,100568.78
2022-08-16T03:12:30.152Z,100563.47
2022-08-16T03:17:35.248Z,100570.66
2022-08-16T03:22:39.324Z,100565.38
2022-08-16T03:27:52.802Z,100573.38
2022-08-16T03:32:57.540Z,100588.53
2022-08-16T03:38:32.821Z,100579.69
2022-08-16T03:43:51.085Z,100576.19
2022-08-16T03:48:57.593Z,100571.81
2022-08-16T03:54:01.705Z,100588.72
2022-08-16T03:59:09.009Z,100598.50
2022-08-16T04:04:25.156Z,100607.44
2022-08-16T04:09:38.239Z,100612.81
2022-08-16T04:14:46.863Z,100619.03
2022-08-16T04:19:54.891Z,100617.25
2022-08-16T04:25:02.262Z,100619.06
2022-08-16T04:30:32.469Z,100627.97
2022-08-16T04:35:39.546Z,100620.88
2022-08-16T04:40:44.770Z,100626.19
2022-08-16T04:46:00.190Z,100642.19
2022-08-16T04:51:07.972Z,100646.63
2022-08-16T04:56:22.092Z,100653.72
2022-08-16T05:01:56.093Z,100643.06
2022-08-16T05:06:53.317Z,100640.38
2022-08-16T05:12:04.532Z,100654.63
2022-08-16T05:17:10.371Z,100645.72
2022-08-16T05:22:18.316Z,100654.56
2022-08-16T05:27:27.788Z,100654.56
2022-08-16T05:32:36.607Z,100658.97
2022-08-16T05:37:50.636Z,100653.63
2022-08-16T05:42:55.643Z,100657.16
2022-08-16T05:48:02.596Z,100653.59
2022-08-16T05:53:17.443Z,100656.22
2022-08-16T05:58:38.354Z,100681.09
2022-08-16T06:03:44.416Z,100678.41
2022-08-16T06:08:54.677Z,100676.56
2022-08-16T06:13:58.569Z,100685.47
2022-08-16T06:19:13.250Z,100678.34
2022-08-16T06:24:53.621Z,100691.63
2022-08-16T06:29:49.981Z,100689.81
2022-08-16T06:35:02.270Z,100701.31
2022-08-16T06:40:12.924Z,100695.03
2022-08-16T06:45:24.250Z,100703.88
2022-08-16T06:50:50.280Z,100691.41
2022-08-16T06:55:57.238Z,100694.88
2022-08-16T07:01:01.277Z,100694.78
2022-08-16T07:06:08.778Z,100707.19
2022-08-16T07:11:20.791Z,100708.88
2022-08-16T07:16:45.209Z,100710.53
2022-08-16T07:21:59.104Z,100720.22
2022-08-16T07:27:08.517Z,100712.09
2022-08-16T07:32:13.347Z,100725.34
2022-08-16T07:37:18.549Z,100722.47
2022-08-16T07:42:49.265Z,100723.16
2022-08-16T07:47:53.516Z,100741.66
2022-08-16T07:53:02.004Z,100746.84
2022-08-16T07:58:06.916Z,100755.31
2022-08-16T08:03:22.460Z,100739.63
2022-08-16T08:08:51.701Z,100745.22
2022-08-16T08:14:03.091Z,100755.50
2022-08-16T08:19:12.363Z,100753.13
2022-08-16T08:24:19.753Z,100753.19
2022-08-16T08:29:24.774Z,100766.78
2022-08-16T08:34:42.070Z,100756.31
2022-08-16T08:39:54.655Z,100752.84
2022-08-16T08:44:59.599Z,100762.16
2022-08-16T08:50:05.186Z,100767.25
2022-08-16T08:55:14.729Z,100767.63
2022-08-16T09:00:26.845Z,100772.19
2022-08-16T09:05:35.922Z,100788.03
2022-08-16T09:10:44.639Z,100794.09
2022-08-16T09:15:49.235Z,100796.56
2022-08-16T09:20:59.550Z,100803.38
2022-08-16T09:26:46.035Z,100788.53
2022-08-16T09:31:30.738Z,100805.91
2022-08-16T09:36:34.401Z,100809.72
2022-08-16T09:41:38.923Z,100814.91
2022-08-16T09:46:48.065Z,100817.22
2022-08-16T09:51:55.612Z,100811.94
2022-08-16T09:57:02.967Z,100821.63
2022-08-16T10:02:25.965Z,100812.06
2022-08-16T10:07:43.970Z,100819.13
2022-08-16T10:13:07.970Z,100827.47
2022-08-16T10:19:00.390Z,100820.69
2022-08-16T10:23:36.736Z,100825.34
2022-08-16T10:28:43.405Z,100813.75
2022-08-16T10:33:47.152Z,100821.47
2022-08-16T10:38:52.064Z,100833.16
2022-08-16T10:43:56.741Z,100834.34
2022-08-16T10:49:01.038Z,100836.78
2022-08-16T10:54:28.807Z,100828.81
2022-08-16T10:59:45.932Z,100838.81
2022-08-16T11:05:06.246Z,100849.03
2022-08-16T11:15:37.047Z,100852.84
2022-08-16T11:20:48.599Z,100847.00
2022-08-16T11:26:16.658Z,100849.44
2022-08-16T11:31:16.946Z,100838.00
2022-08-16T11:36:27.430Z,100838.19
2022-08-16T11:41:33.451Z,100848.22
2022-08-16T11:46:44.392Z,100846.88
2022-08-16T11:51:50.111Z,100846.69
2022-08-16T11:56:57.046Z,100861.78
2022-08-16T12:02:11.570Z,100864.13
2022-08-16T12:07:25.734Z,100873.22
2022-08-16T12:12:28.879Z,100875.88
2022-08-16T12:17:33.831Z,100875.00
2022-08-16T12:22:37.392Z,100890.22
2022-08-16T12:27:40.890Z,100888.38
2022-08-16T12:32:46.118Z,100887.63
2022-08-16T12:37:58.705Z,100883.91
2022-08-16T12:43:05.334Z,100880.81
2022-08-16T12:48:35.522Z,100875.47
2022-08-16T12:53:40.160Z,100880.50
2022-08-16T12:58:48.637Z,100878.78
2022-08-16T13:04:11.365Z,100891.78
2022-08-16T13:09:26.330Z,100890.59
2022-08-16T13:14:35.277Z,100883.94
2022-08-16T13:20:07.097Z,100881.47
2022-08-16T13:25:06.306Z,100883.13
2022-08-16T13:30:21.839Z,100877.50
2022-08-16T13:35:35.422Z,100864.63
2022-08-16T13:40:46.000Z,100876.94
2022-08-16T13:45:50.458Z,100876.66
2022-08-16T13:50:58.709Z,100876.41
2022-08-16T13:56:06.977Z,100876.38
2022-08-16T14:01:13.878Z,100877.50
2022-08-16T14:06:18.821Z,100871.47
2022-08-16T14:11:22.122Z,100884.22
2022-08-16T14:16:33.540Z,100880.78
2022-08-16T14:21:40.946Z,100882.50
2022-08-16T14:26:46.492Z,100884.84
2022-08-16T14:31:53.717Z,100883.03
2022-08-16T14:37:00.717Z,100877.84
2022-08-16T14:42:09.103Z,100869.56
2022-08-16T14:47:15.128Z,100866.66
2022-08-16T14:52:52.051Z,100872.44
2022-08-16T14:57:46.436Z,100878.97
2022-08-16T15:02:54.149Z,100876.84
2022-08-16T15:08:01.058Z,100882.59
2022-08-16T15:13:06.502Z,100883.88
2022-08-16T15:18:14.609Z,100891.72
2022-08-16T15:23:28.758Z,100879.47
2022-08-16T15:28:33.712Z,100885.94
2022-08-16T15:33:50.755Z,100880.00
2022-08-16T15:39:06.774Z,100889.03
2022-08-16T15:44:25.624Z,100884.28
2022-08-16T15:49:37.195Z,100886.41
2022-08-16T15:54:52.552Z,100889.59
2022-08-16T16:00:04.918Z,100888.41
2022-08-16T16:05:19.655Z,100900.63
2022-08-16T16:10:29.927Z,100888.09
2022-08-16T16:15:35.950Z,100886.88
2022-08-16T16:20:43.667Z,100893.03
2022-08-16T16:25:48.681Z,100889.28
2022-08-16T16:30:56.931Z,100897.50
2022-08-16T16:36:03.917Z,100905.56
2022-08-16T16:41:11.496Z,100899.19
2022-08-16T16:46:42.074Z,100886.75
2022-08-16T16:51:44.753Z,100888.44
2022-08-16T16:56:54.315Z,100886.88
2022-08-16T17:02:01.436Z,100894.41
2022-08-16T17:07:24.347Z,100888.34
2022-08-16T17:12:47.231Z,100891.00
2022-08-16T17:23:16.261Z,100884.81
2022-08-16T17:28:58.482Z,100875.97
2022-08-16T17:33:54.748Z,100886.22
2022-08-16T17:39:00.093Z,100885.69
2022-08-16T17:39:28.150Z,100888.03
2022-08-16T17:44:05.746Z,100897.06
2022-08-16T17:49:08.852Z,100901.91
2022-08-16T17:54:20.285Z,100907.41
2022-08-16T17:59:36.960Z,100911.38
2022-08-16T18:04:49.318Z,100901.78
2022-08-16T18:09:53.096Z,100897.94
2022-08-16T18:15:00.170Z,100904.53
2022-08-16T18:20:04.346Z,100908.94
2022-08-16T18:25:07.991Z,100906.72
2022-08-16T18:30:17.658Z,100907.50
2022-08-16T18:35:21.751Z,100918.91
2022-08-16T18:40:25.035Z,100916.72
2022-08-16T18:45:35.614Z,100920.53
2022-08-16T18:50:59.681Z,100925.34
2022-08-16T18:56:05.159Z,100941.06
2022-08-16T19:01:09.729Z,100945.88
2022-08-16T19:06:15.215Z,100938.06
2022-08-16T19:11:23.356Z,100951.09
2022-08-16T19:16:27.741Z,100949.78
2022-08-16T19:21:30.820Z,100957.41
2022-08-16T19:26:33.953Z,100964.94
2022-08-16T19:31:38.410Z,100976.03
2022-08-16T19:36:41.428Z,100980.69
2022-08-16T19:41:53.027Z,100993.34
2022-08-16T19:47:00.755Z,100989.94
2022-08-16T19:52:15.033Z,100998.16
2022-08-16T19:57:18.425Z,101004.53
2022-08-16T20:02:35.633Z,101009.97
2022-08-16T20:07:39.563Z,101002.78
2022-08-16T20:12:44.126Z,101004.72
2022-08-16T20:18:21.266Z,101011.06
2022-08-16T20:23:28.358Z,101007.66
2022-08-16T20:28:52.086Z,101019.38
2022-08-16T20:34:05.958Z,101027.53
2022-08-16T20:39:15.257Z,101017.94
2022-08-16T20:44:23.022Z,101019.03
2022-08-16T20:49:35.574Z,101008.41
2022-08-16T20:54:39.203Z,101014.72
2022-08-16T20:59:45.605Z,101021.97
2022-08-16T21:05:02.089Z,101021.06
2022-08-16T21:10:14.624Z,101025.50
2022-08-16T21:15:18.172Z,101022.84
2022-08-16T21:20:25.405Z,101022.00
2022-08-16T21:25:32.222Z,101015.94
2022-08-16T21:30:35.829Z,101031.09
2022-08-16T21:35:41.274Z,101032.91
2022-08-16T21:40:44.556Z,101034.66
2022-08-16T21:45:48.788Z,101031.19
2022-08-16T21:51:02.446Z,101040.22
2022-08-16T21:56:06.774Z,101048.28
2022-08-16T22:01:13.638Z,101044.72
2022-08-16T22:06:18.183Z,101046.53
2022-08-16T22:11:23.224Z,101051.06
2022-08-16T22:16:27.284Z,101046.63
2022-08-16T22:21:32.869Z,101046.66
2022-08-16T22:26:42.827Z,101043.06
2022-08-16T22:31:45.942Z,101044.84
2022-08-16T22:36:51.096Z,101044.00
2022-08-16T22:41:54.590Z,101027.97
2022-08-16T22:46:57.775Z,101023.56
2022-08-16T22:52:07.281Z,101033.47
2022-08-16T22:57:10.826Z,101031.72
2022-08-16T23:02:14.942Z,101028.19
2022-08-16T23:07:19.608Z,101037.16
2022-08-16T23:12:29.195Z,101027.38
2022-08-16T23:17:33.757Z,101006.00
2022-08-16T23:23:20.983Z,101010.53
2022-08-16T23:28:08.112Z,101010.66
2022-08-16T23:33:13.494Z,101009.00
2022-08-16T23:38:37.665Z,101006.50
2022-08-16T23:43:43.553Z,101007.44
2022-08-16T23:50:01.304Z,101003.81
2022-08-16T23:54:11.844Z,100996.69
2022-08-16T23:59:14.843Z,100989.56
